Time;durP1;ratioP1;P1;durP2;ratioP2;P2;SDS_P1;SDS_P2;PMS_P1;PMS_P2;Temp;Humidity;BMP_temperature;BMP_pressure;BME280_temperature;BME280_humidity;BME280_pressure;Samples;Min_cycle;Max_cycle;Signal;HPM_P1;HPM_P2
2022/05/01 00:00:59;;;;;;;8.18;4.88;;;28.10;99.80;;;;;;4186392;28;20053;-68
2022/05/01 00:03:04;;;;;;;6.78;5.07;;;28.10;99.80;;;;;;4183906;28;20048;-69
2022/05/01 00:05:09;;;;;;;6.03;4.20;;;28.20;99.70;;;;;;4185318;28;20126;-68
2022/05/01 00:07:16;;;;;;;8.02;4.60;;;28.20;99.50;;;;;;4183852;28;20071;-69
2022/05/01 00:09:20;;;;;;;10.10;4.63;;;28.30;99.40;;;;;;4194803;28;20044;-69
2022/05/01 00:11:25;;;;;;;5.13;4.00;;;28.10;99.70;;;;;;4195142;28;20064;-69
2022/05/01 00:13:32;;;;;;;5.30;4.30;;;28.10;99.90;;;;;;4192277;28;20044;-69
2022/05/01 00:15:39;;;;;;;5.85;3.78;;;28.10;99.80;;;;;;4182842;28;20053;-69
2022/05/01 00:17:44;;;;;;;7.95;4.60;;;28.20;99.60;;;;;;4187042;28;20049;-69
2022/05/01 00:19:50;;;;;;;5.82;4.38;;;28.20;99.60;;;;;;4173723;28;20739;-69
2022/05/01 00:21:58;;;;;;;5.75;4.28;;;28.20;99.50;;;;;;4187822;28;20132;-69
2022/05/01 00:24:04;;;;;;;5.32;3.90;;;28.20;99.50;;;;;;4186084;28;20033;-69
2022/05/01 00:26:11;;;;;;;4.63;3.47;;;28.30;99.30;;;;;;4195561;28;20721;-69
2022/05/01 00:28:19;;;;;;;5.15;3.75;;;28.30;99.10;;;;;;4174062;28;20045;-69
2022/05/01 00:30:27;;;;;;;5.43;3.90;;;28.30;99.20;;;;;;4194244;28;20037;-69
2022/05/01 00:36:25;;;;;;;4.72;3.30;;;28.30;99.10;;;;;;4188953;28;20132;-69
2022/05/01 00:37:21;;;;;;;5.38;3.90;;;28.40;99.20;;;;;;4187298;28;20130;-69
2022/05/01 00:39:28;;;;;;;5.15;3.67;;;28.40;99.10;;;;;;4187859;28;20056;-68
2022/05/01 00:41:35;;;;;;;3.92;3.40;;;28.50;99.00;;;;;;4182191;28;20061;-68
2022/05/01 00:43:56;;;;;;;5.53;4.28;;;28.50;99.00;;;;;;4179573;28;20045;-67
2022/05/01 00:46:01;;;;;;;4.78;4.03;;;28.50;98.90;;;;;;4183901;28;20179;-68
2022/05/01 00:48:07;;;;;;;7.43;4.95;;;28.50;98.90;;;;;;4165486;28;20124;-68
2022/05/01 00:50:12;;;;;;;7.70;5.82;;;28.40;99.40;;;;;;4180690;28;20037;-69
2022/05/01 00:52:19;;;;;;;9.40;6.05;;;28.40;99.50;;;;;;4182142;28;20144;-68
2022/05/01 00:54:26;;;;;;;7.05;5.57;;;28.40;99.60;;;;;;4186411;28;20113;-69
2022/05/01 00:56:31;;;;;;;6.35;4.82;;;28.40;99.60;;;;;;4178615;28;20048;-69
2022/05/01 00:58:37;;;;;;;7.38;4.63;;;28.50;99.40;;;;;;4179661;28;20045;-67
2022/05/01 01:00:43;;;;;;;6.65;4.82;;;28.50;99.50;;;;;;4185783;28;20160;-68
2022/05/01 01:02:48;;;;;;;7.65;4.82;;;28.50;99.40;;;;;;4177827;28;20087;-69
2022/05/01 01:04:53;;;;;;;7.70;5.95;;;28.50;99.40;;;;;;4179871;28;20631;-68
2022/05/01 01:06:57;;;;;;;3.92;3.30;;;28.60;99.10;;;;;;4181811;28;20041;-67
2022/05/01 01:09:03;;;;;;;5.07;3.80;;;28.50;99.10;;;;;;4180901;28;20377;-69
2022/05/01 01:11:10;;;;;;;5.55;3.72;;;28.60;98.90;;;;;;4181574;28;20083;-68
2022/05/01 01:13:17;;;;;;;5.70;3.50;;;28.60;98.90;;;;;;4182390;28;20033;-69
2022/05/01 01:15:29;;;;;;;5.05;3.88;;;28.80;99.00;;;;;;4163668;28;20057;-68
2022/05/01 01:17:42;;;;;;;;;;;28.90;98.70;;;;;;4180751;28;20049;-69
2022/05/01 01:19:46;;;;;;;5.70;4.20;;;28.90;98.50;;;;;;4180489;28;20355;-69
2022/05/01 01:21:52;;;;;;;6.15;4.63;;;29.00;98.40;;;;;;4173342;28;20041;-67
2022/05/01 01:24:00;;;;;;;9.82;5.68;;;29.00;98.50;;;;;;4137205;28;20517;-70
2022/05/01 01:26:06;;;;;;;17.75;8.98;;;29.10;98.60;;;;;;4183412;28;20056;-67
2022/05/01 01:28:11;;;;;;;20.20;8.27;;;29.10;98.60;;;;;;4180157;28;20036;-68
2022/05/01 01:32:39;;;;;;;10.73;6.13;;;29.20;98.30;;;;;;4182278;28;20040;-69
2022/05/01 01:34:44;;;;;;;21.85;11.18;;;29.20;98.50;;;;;;4178558;28;20044;-69
2022/05/01 01:36:49;;;;;;;21.90;9.25;;;29.20;99.30;;;;;;4180881;28;20044;-69
2022/05/01 01:38:55;;;;;;;17.95;8.55;;;29.30;99.20;;;;;;4182290;28;20045;-67
2022/05/01 01:41:00;;;;;;;8.00;5.40;;;29.30;98.90;;;;;;4182682;28;20099;-67
2022/05/01 01:43:07;;;;;;;13.40;6.32;;;29.30;98.40;;;;;;4184111;28;20464;-66
2022/05/01 01:45:14;;;;;;;13.65;6.82;;;29.20;98.70;;;;;;4179504;28;20531;-67
2022/05/01 01:47:34;;;;;;;16.40;7.30;;;29.30;98.60;;;;;;4182326;28;20150;-68
2022/05/01 01:49:41;;;;;;;12.10;6.77;;;29.40;98.60;;;;;;4178982;28;20110;-68
2022/05/01 01:51:47;;;;;;;14.52;6.50;;;29.50;98.60;;;;;;4180066;28;20048;-67
2022/05/01 01:53:52;;;;;;;9.70;4.97;;;29.50;98.30;;;;;;4183987;28;20102;-69
2022/05/01 01:55:59;;;;;;;30.23;12.98;;;29.50;98.30;;;;;;4180019;28;20041;-67
2022/05/01 01:58:10;;;;;;;16.33;8.80;;;29.60;98.30;;;;;;4176791;28;20155;-69
2022/05/01 02:00:15;;;;;;;18.77;8.68;;;29.70;98.40;;;;;;4177856;28;20099;-68
2022/05/01 02:02:22;;;;;;;30.80;12.95;;;29.80;98.40;;;;;;4175879;28;20100;-68
2022/05/01 02:04:27;;;;;;;16.23;8.13;;;29.70;98.60;;;;;;4182055;28;20045;-69
2022/05/01 02:06:31;;;;;;;16.98;9.15;;;29.70;98.30;;;;;;4175025;28;20045;-68
2022/05/01 02:08:40;;;;;;;17.35;6.78;;;29.80;98.20;;;;;;4168773;28;20049;-68
2022/05/01 02:10:47;;;;;;;21.70;11.00;;;29.80;98.10;;;;;;4186292;28;20045;-68
2022/05/01 02:12:51;;;;;;;35.97;14.57;;;29.90;98.20;;;;;;4188134;28;20694;-68
2022/05/01 02:14:56;;;;;;;31.35;12.32;;;29.90;98.40;;;;;;4185464;28;20048;-68
2022/05/01 02:17:03;;;;;;;17.98;8.57;;;29.90;98.50;;;;;;4184400;28;20049;-69
2022/05/01 02:19:08;;;;;;;14.88;6.85;;;29.90;98.30;;;;;;4182748;28;20040;-70
2022/05/01 02:23:29;;;;;;;14.57;6.78;;;30.00;98.20;;;;;;4173748;28;20045;-68
2022/05/01 02:25:36;;;;;;;11.85;6.05;;;30.10;98.00;;;;;;4164102;28;20073;-68
2022/05/01 02:27:40;;;;;;;12.00;6.38;;;30.10;97.90;;;;;;4185402;28;20045;-68
2022/05/01 02:29:45;;;;;;;11.52;5.20;;;30.10;98.00;;;;;;4178310;28;20072;-69
2022/05/01 02:31:53;;;;;;;7.38;3.92;;;30.10;98.40;;;;;;4182666;28;20445;-68
2022/05/01 02:34:00;;;;;;;4.18;3.05;;;30.30;97.70;;;;;;4182595;28;20056;-68
2022/05/01 02:36:07;;;;;;;5.50;3.10;;;30.30;97.20;;;;;;4177599;28;20072;-70
2022/05/01 02:38:12;;;;;;;5.00;2.90;;;30.40;97.00;;;;;;4176081;28;20578;-69
2022/05/01 02:40:19;;;;;;;4.15;3.00;;;30.40;96.70;;;;;;4183167;28;20053;-68
2022/05/01 02:42:27;;;;;;;4.32;2.60;;;30.40;96.70;;;;;;4186271;28;20057;-68
2022/05/01 02:44:32;;;;;;;4.20;3.10;;;30.40;96.60;;;;;;4190345;28;20055;-69
2022/05/01 02:46:37;;;;;;;3.85;3.08;;;30.50;96.60;;;;;;4181623;28;20032;-67
2022/05/01 02:48:44;;;;;;;5.78;2.97;;;30.60;96.90;;;;;;4180685;28;20140;-70
2022/05/01 02:50:48;;;;;;;3.55;2.80;;;30.60;96.80;;;;;;4173613;28;20041;-69
2022/05/01 02:52:55;;;;;;;3.63;2.70;;;30.70;96.60;;;;;;4183894;28;20056;-67
2022/05/01 02:55:01;;;;;;;6.95;2.70;;;30.70;96.50;;;;;;4172169;28;20086;-69
2022/05/01 02:57:06;;;;;;;4.00;2.70;;;30.70;96.60;;;;;;4190101;28;20060;-70
2022/05/01 02:59:14;;;;;;;5.20;3.00;;;30.80;96.40;;;;;;4180452;28;20044;-68
2022/05/01 03:01:21;;;;;;;5.95;3.05;;;30.80;96.60;;;;;;4182920;28;20102;-68
2022/05/01 03:03:26;;;;;;;6.75;3.53;;;30.80;96.40;;;;;;4184236;28;20097;-68
2022/05/01 03:05:30;;;;;;;14.00;9.38;;;30.80;96.40;;;;;;4181701;28;20081;-68
2022/05/01 03:07:38;;;;;;;13.20;9.40;;;30.80;96.40;;;;;;4181142;28;20048;-68
2022/05/01 03:09:42;;;;;;;10.55;6.97;;;30.80;96.20;;;;;;4181538;28;20052;-67
2022/05/01 03:11:47;;;;;;;6.65;4.03;;;30.80;96.30;;;;;;4182857;28;20757;-69
2022/05/01 03:13:54;;;;;;;4.15;3.25;;;30.90;96.50;;;;;;4184314;28;20044;-69
2022/05/01 03:15:59;;;;;;;6.82;3.40;;;30.90;96.60;;;;;;4160977;28;20547;-68
2022/05/01 03:22:47;;;;;;;4.38;2.92;;;31.10;96.00;;;;;;4175018;28;20053;-68
2022/05/01 03:24:54;;;;;;;4.50;2.97;;;31.10;95.80;;;;;;4177326;28;20067;-69
2022/05/01 03:27:01;;;;;;;2.90;2.33;;;31.10;96.00;;;;;;4179020;28;20090;-68
2022/05/01 03:29:06;;;;;;;4.35;2.88;;;31.20;96.00;;;;;;4179250;28;20041;-68
2022/05/01 03:31:13;;;;;;;4.45;3.00;;;31.20;96.10;;;;;;4177599;28;20040;-68
2022/05/01 03:33:21;;;;;;;3.45;2.63;;;31.20;96.10;;;;;;4178019;28;20137;-69
2022/05/01 03:35:26;;;;;;;3.97;2.50;;;31.40;95.90;;;;;;4179664;28;20457;-68
2022/05/01 03:37:33;;;;;;;3.85;2.30;;;31.50;95.90;;;;;;4181120;28;20557;-68
2022/05/01 03:39:45;;;;;;;9.93;2.47;;;31.40;95.60;;;;;;4161200;28;20087;-68
2022/05/01 03:41:50;;;;;;;2.28;2.08;;;31.30;95.50;;;;;;4178444;28;20747;-69
2022/05/01 03:43:57;;;;;;;6.90;3.15;;;31.30;95.20;;;;;;4180930;28;20037;-69
2022/05/01 03:46:07;;;;;;;6.22;2.30;;;31.40;95.50;;;;;;4179306;28;20051;-68
2022/05/01 03:48:12;;;;;;;4.68;3.33;;;31.40;95.40;;;;;;4179007;28;20434;-70
2022/05/01 03:50:17;;;;;;;5.85;2.00;;;31.50;95.30;;;;;;4181129;28;20618;-68
2022/05/01 03:52:22;;;;;;;7.60;2.08;;;31.50;94.90;;;;;;4176835;28;20132;-68
2022/05/01 03:54:27;;;;;;;7.22;1.98;;;31.40;94.60;;;;;;4160271;28;20751;-70
2022/05/01 03:56:33;;;;;;;2.55;1.67;;;31.30;94.20;;;;;;4178682;28;20780;-69
2022/05/01 03:58:38;;;;;;;2.50;2.08;;;31.20;94.80;;;;;;4177100;28;20049;-69
2022/05/01 04:00:47;;;;;;;6.22;2.50;;;31.30;95.00;;;;;;4178663;28;20047;-69
2022/05/01 04:02:52;;;;;;;2.97;1.92;;;31.50;94.90;;;;;;4157464;28;20049;-69
2022/05/01 04:04:57;;;;;;;4.05;2.08;;;31.60;94.50;;;;;;4176623;28;20051;-68
2022/05/01 04:07:02;;;;;;;3.47;1.80;;;31.70;94.80;;;;;;4171072;28;20037;-68
2022/05/01 04:09:09;;;;;;;4.90;2.42;;;31.70;94.50;;;;;;4177990;28;20135;-68
2022/05/01 04:11:16;;;;;;;5.53;2.53;;;31.80;94.50;;;;;;4180381;28;20048;-68
2022/05/01 04:13:21;;;;;;;4.35;2.20;;;31.90;94.10;;;;;;4180882;28;20135;-67
2022/05/01 04:15:30;;;;;;;9.80;2.03;;;31.80;94.10;;;;;;4178749;28;20045;-67
2022/05/01 04:17:42;;;;;;;2.53;1.92;;;31.70;94.20;;;;;;4176529;28;20043;-68
2022/05/01 04:19:48;;;;;;;6.88;2.17;;;31.80;94.10;;;;;;4178787;28;20396;-68
2022/05/01 04:21:55;;;;;;;3.13;2.20;;;32.00;94.20;;;;;;4178366;28;20077;-68
2022/05/01 04:24:02;;;;;;;3.58;2.10;;;32.10;94.30;;;;;;4179631;28;20147;-68
2022/05/01 04:26:07;;;;;;;2.55;2.15;;;32.10;93.90;;;;;;4182020;28;20044;-68
2022/05/01 04:28:15;;;;;;;2.92;2.00;;;32.10;93.70;;;;;;4168766;28;20045;-68
2022/05/01 04:30:22;;;;;;;5.07;1.80;;;31.90;93.30;;;;;;4164693;28;20488;-68
2022/05/01 04:32:27;;;;;;;2.22;1.98;;;31.90;93.80;;;;;;4183538;28;20102;-68
2022/05/01 04:34:35;;;;;;;3.70;2.25;;;31.90;93.70;;;;;;4181010;28;20080;-69
2022/05/01 04:36:43;;;;;;;2.97;2.10;;;32.10;93.60;;;;;;4180568;28;20059;-69
2022/05/01 04:38:47;;;;;;;5.20;2.15;;;32.00;93.60;;;;;;4177279;28;20045;-69
2022/05/01 04:40:58;;;;;;;6.30;2.72;;;32.00;93.60;;;;;;4178404;28;20049;-68
2022/05/01 04:43:23;;;;;;;4.47;3.28;;;32.10;93.80;;;;;;4176269;28;20044;-66
2022/05/01 04:45:29;;;;;;;2.65;2.15;;;32.30;93.70;;;;;;4181998;28;20041;-68
2022/05/01 04:47:36;;;;;;;7.43;2.30;;;32.50;93.70;;;;;;4181015;28;20074;-69
2022/05/01 04:49:43;;;;;;;20.83;6.80;;;32.50;93.70;;;;;;4183404;28;20044;-68
2022/05/01 04:51:48;;;;;;;2.80;1.90;;;32.50;95.20;;;;;;4186624;28;20039;-71
2022/05/01 04:53:54;;;;;;;6.80;2.17;;;32.60;93.70;;;;;;4145370;28;20111;-70
2022/05/01 04:57:04;;;;;;;3.38;1.88;;;32.70;93.50;;;;;;4184357;28;20462;-68
2022/05/01 04:58:25;;;;;;;2.30;1.70;;;32.60;93.40;;;;;;4177416;28;20495;-69
2022/05/01 05:00:31;;;;;;;3.25;1.70;;;32.60;93.50;;;;;;4144035;28;20128;-70
2022/05/01 05:02:39;;;;;;;2.67;2.00;;;32.50;93.20;;;;;;4177086;28;20040;-70
2022/05/01 05:04:43;;;;;;;2.10;1.50;;;32.50;93.30;;;;;;4176693;28;20064;-70
2022/05/01 05:06:52;;;;;;;1.90;1.33;;;32.60;92.70;;;;;;4174603;28;20127;-70
2022/05/01 05:11:14;;;;;;;2.38;1.30;;;32.60;92.60;;;;;;4176636;28;20132;-70
2022/05/01 05:13:27;;;;;;;2.08;1.60;;;32.60;92.70;;;;;;4159527;28;20088;-69
2022/05/01 05:15:34;;;;;;;2.10;1.45;;;32.50;92.60;;;;;;4173645;28;20122;-70
2022/05/01 05:17:38;;;;;;;1.25;1.10;;;32.60;92.70;;;;;;4174015;28;20044;-70
2022/05/01 05:19:46;;;;;;;2.33;1.50;;;32.80;92.60;;;;;;4164503;28;20199;-70
2022/05/01 05:21:51;;;;;;;2.05;1.63;;;32.90;92.30;;;;;;4176475;28;20160;-69
2022/05/01 05:23:59;;;;;;;2.65;1.52;;;32.90;91.80;;;;;;4176245;28;20600;-69
2022/05/01 05:26:04;;;;;;;2.42;1.55;;;32.80;91.80;;;;;;4178062;28;20048;-68
2022/05/01 05:28:10;;;;;;;2.00;1.45;;;32.70;91.90;;;;;;4177532;28;20037;-69
2022/05/01 05:30:15;;;;;;;2.05;1.50;;;32.90;91.90;;;;;;4180005;28;20044;-70
2022/05/01 05:32:20;;;;;;;1.95;1.40;;;33.00;91.60;;;;;;4162200;28;20049;-70
2022/05/01 05:34:27;;;;;;;2.70;1.50;;;33.10;91.80;;;;;;4178958;28;20064;-69
2022/05/01 05:36:32;;;;;;;2.00;1.50;;;33.20;91.60;;;;;;4179817;28;20060;-67
2022/05/01 05:38:38;;;;;;;1.48;1.38;;;33.30;91.50;;;;;;4177488;28;20072;-70
2022/05/01 05:40:43;;;;;;;2.72;1.50;;;33.30;91.60;;;;;;4178986;28;20060;-70
2022/05/01 05:42:47;;;;;;;1.90;1.42;;;33.30;91.40;;;;;;4181761;28;20061;-69
2022/05/01 05:44:52;;;;;;;1.55;1.33;;;33.30;91.60;;;;;;4176306;28;20057;-71
2022/05/01 05:46:58;;;;;;;1.63;1.48;;;33.30;91.80;;;;;;4175668;28;20471;-70
2022/05/01 05:49:03;;;;;;;2.20;1.50;;;33.30;91.90;;;;;;4177123;28;20052;-70
2022/05/01 05:51:08;;;;;;;1.50;1.25;;;33.40;91.50;;;;;;4185378;28;20056;-68
2022/05/01 05:53:12;;;;;;;2.60;1.70;;;33.50;91.50;;;;;;4183666;28;20575;-70
2022/05/01 05:55:17;;;;;;;3.90;1.40;;;33.70;90.90;;;;;;4178848;28;20059;-70
2022/05/01 05:57:21;;;;;;;1.83;1.60;;;33.50;90.50;;;;;;4190136;28;20049;-68
2022/05/01 05:59:28;;;;;;;1.52;1.27;;;33.60;90.70;;;;;;4186335;28;20770;-68
2022/05/01 06:01:33;;;;;;;1.45;1.30;;;33.30;90.80;;;;;;4179879;28;20075;-70
2022/05/01 06:03:40;;;;;;;2.88;1.35;;;33.30;91.20;;;;;;4189798;28;20147;-68
2022/05/01 06:05:46;;;;;;;1.60;1.30;;;33.50;91.60;;;;;;4182815;28;20507;-69
2022/05/01 06:07:52;;;;;;;1.75;1.65;;;33.60;90.20;;;;;;4185817;28;20076;-69
2022/05/01 06:09:59;;;;;;;2.05;1.70;;;33.40;90.30;;;;;;4191907;28;20087;-70
2022/05/01 06:12:06;;;;;;;2.00;1.50;;;33.50;90.30;;;;;;4185607;28;20114;-69
2022/05/01 06:14:10;;;;;;;5.50;1.65;;;33.60;90.30;;;;;;4180296;28;20140;-70
2022/05/01 06:16:17;;;;;;;1.42;1.33;;;33.80;90.60;;;;;;4190148;28;20430;-68
2022/05/01 06:18:21;;;;;;;2.30;1.70;;;33.80;89.40;;;;;;4190164;28;20147;-69
2022/05/01 06:20:26;;;;;;;2.95;1.90;;;33.90;89.40;;;;;;4182926;28;20048;-68
2022/05/01 06:22:32;;;;;;;2.20;1.67;;;33.90;89.70;;;;;;4164568;28;20056;-70
2022/05/01 06:24:43;;;;;;;1.83;1.60;;;33.90;88.60;;;;;;4189471;28;21942;-70
2022/05/01 06:26:47;;;;;;;2.47;1.70;;;33.90;88.50;;;;;;4185837;28;20051;-69
2022/05/01 06:28:54;;;;;;;2.78;1.58;;;33.80;89.00;;;;;;4161096;28;20054;-70
2022/05/01 06:31:00;;;;;;;3.05;1.60;;;33.80;89.50;;;;;;4183573;28;20079;-70
2022/05/01 06:33:07;;;;;;;2.30;1.80;;;33.90;89.30;;;;;;4187819;28;20168;-69
2022/05/01 06:35:14;;;;;;;1.90;1.67;;;33.90;89.30;;;;;;4173447;28;20045;-69
2022/05/01 06:37:21;;;;;;;2.17;1.80;;;33.90;88.30;;;;;;4179546;28;20134;-69
2022/05/01 06:39:26;;;;;;;3.47;1.85;;;33.60;89.60;;;;;;4193127;28;20044;-69
2022/05/01 06:41:34;;;;;;;1.67;1.58;;;33.70;89.20;;;;;;4190698;28;20135;-70
2022/05/01 06:43:40;;;;;;;2.70;1.77;;;33.90;88.60;;;;;;4195705;28;20045;-68
2022/05/01 06:45:45;;;;;;;1.80;1.50;;;34.10;88.70;;;;;;4193636;28;20041;-70
2022/05/01 06:47:54;;;;;;;2.42;1.90;;;34.30;88.40;;;;;;4178381;28;20045;-69
2022/05/01 06:49:59;;;;;;;3.42;1.70;;;34.30;88.60;;;;;;4179132;28;20041;-68
2022/05/01 06:52:06;;;;;;;2.90;1.63;;;34.40;87.80;;;;;;4181222;28;20098;-68
2022/05/01 06:54:11;;;;;;;2.25;1.63;;;34.40;88.70;;;;;;4186149;28;20080;-69
2022/05/01 06:56:18;;;;;;;1.98;1.60;;;34.50;86.90;;;;;;4181146;28;20033;-68
2022/05/01 06:58:23;;;;;;;1.92;1.73;;;34.40;87.60;;;;;;4173604;28;20063;-69
2022/05/01 07:00:28;;;;;;;1.88;1.60;;;34.50;87.40;;;;;;4168725;28;20186;-69
2022/05/01 07:02:35;;;;;;;2.33;2.03;;;34.30;88.00;;;;;;4179178;28;20048;-69
2022/05/01 07:04:40;;;;;;;2.78;1.92;;;34.10;88.10;;;;;;4173976;28;20132;-69
2022/05/01 07:06:45;;;;;;;3.97;1.90;;;34.10;87.90;;;;;;4164434;28;20061;-69
2022/05/01 07:08:52;;;;;;;1.85;1.70;;;34.30;88.20;;;;;;4175287;28;20067;-68
2022/05/01 07:10:56;;;;;;;3.90;2.45;;;34.40;87.60;;;;;;4184539;28;20124;-69
2022/05/01 07:13:03;;;;;;;3.33;2.20;;;34.40;87.90;;;;;;4172793;28;20144;-69
2022/05/01 07:15:14;;;;;;;3.75;2.35;;;34.30;87.10;;;;;;4179719;28;20060;-68
2022/05/01 07:17:18;;;;;;;4.28;2.70;;;34.30;87.30;;;;;;4181465;28;20045;-68
2022/05/01 07:19:25;;;;;;;3.10;2.20;;;34.30;87.80;;;;;;4182710;28;20041;-69
2022/05/01 07:21:31;;;;;;;3.65;2.20;;;34.20;89.60;;;;;;4184936;28;20852;-69
2022/05/01 07:23:36;;;;;;;2.83;1.98;;;34.10;89.40;;;;;;4190542;28;20045;-68
2022/05/01 07:25:43;;;;;;;3.08;2.20;;;33.90;89.20;;;;;;4188937;28;20037;-68
2022/05/01 07:27:50;;;;;;;4.32;2.00;;;33.80;89.80;;;;;;4185403;28;20436;-68
2022/05/01 07:29:54;;;;;;;3.63;2.00;;;33.80;89.70;;;;;;4166694;28;20033;-69
2022/05/01 07:32:07;;;;;;;3.55;2.05;;;34.10;88.80;;;;;;4182856;28;20131;-68
2022/05/01 07:34:14;;;;;;;3.67;2.40;;;34.20;88.40;;;;;;4181793;28;20098;-68
2022/05/01 07:36:25;;;;;;;3.25;2.20;;;34.10;88.40;;;;;;4172461;28;20053;-67
2022/05/01 07:38:34;;;;;;;3.90;2.90;;;34.10;88.20;;;;;;4166780;28;20085;-68
2022/05/01 07:40:41;;;;;;;5.05;2.63;;;34.10;88.90;;;;;;4182749;28;20424;-69
2022/05/01 07:42:45;;;;;;;5.65;2.78;;;33.90;87.80;;;;;;4182506;28;20060;-69
2022/05/01 07:44:52;;;;;;;4.03;2.90;;;33.90;88.20;;;;;;4138800;28;20050;-67
2022/05/01 07:46:59;;;;;;;7.40;2.63;;;33.90;88.60;;;;;;4170130;28;20049;-68
2022/05/01 07:49:03;;;;;;;37.25;3.40;;;33.80;88.60;;;;;;4188341;28;20118;-68
2022/05/01 07:51:16;;;;;;;5.32;2.60;;;33.60;89.60;;;;;;4182373;28;20059;-68
2022/05/01 07:53:20;;;;;;;2.83;2.22;;;33.60;89.70;;;;;;4180723;28;20060;-68
2022/05/01 07:55:25;;;;;;;4.57;3.00;;;33.70;89.30;;;;;;4171949;28;20041;-68
2022/05/01 07:57:31;;;;;;;3.90;2.40;;;33.80;89.00;;;;;;4180806;28;20045;-68
2022/05/01 07:59:38;;;;;;;3.53;2.90;;;33.70;89.60;;;;;;4183322;28;20098;-69
2022/05/01 08:01:43;;;;;;;3.40;2.83;;;33.60;89.30;;;;;;4179087;28;20049;-69
2022/05/01 08:06:08;;;;;;;3.22;2.83;;;33.50;88.40;;;;;;4190192;28;20290;-68
2022/05/01 08:08:13;;;;;;;6.15;3.35;;;33.70;89.30;;;;;;4190978;28;20529;-69
2022/05/01 08:10:19;;;;;;;2.58;2.03;;;33.60;89.60;;;;;;4188621;28;20125;-69
2022/05/01 08:12:26;;;;;;;17.65;2.45;;;33.60;89.10;;;;;;4189261;28;20064;-69
2022/05/01 08:14:31;;;;;;;2.72;2.30;;;33.70;88.40;;;;;;4168908;28;20101;-68
2022/05/01 08:16:41;;;;;;;2.50;2.25;;;33.50;87.20;;;;;;4191462;28;20052;-68
2022/05/01 08:21:08;;;;;;;3.50;2.15;;;33.50;87.50;;;;;;4192228;28;20270;-70
2022/05/01 08:23:14;;;;;;;4.07;2.78;;;33.50;87.50;;;;;;4190970;28;20064;-70
2022/05/01 08:25:20;;;;;;;2.78;2.33;;;33.60;87.30;;;;;;4151362;28;20060;-69
2022/05/01 08:27:24;;;;;;;3.65;2.33;;;33.70;88.10;;;;;;4182200;28;20037;-69
2022/05/01 08:29:35;;;;;;;2.60;2.33;;;33.80;88.70;;;;;;4181298;28;20052;-69
2022/05/01 08:31:45;;;;;;;4.07;2.47;;;33.80;88.40;;;;;;4174902;28;20037;-68
2022/05/01 08:33:50;;;;;;;3.10;2.80;;;33.60;87.70;;;;;;4171831;28;20052;-69
2022/05/01 08:35:54;;;;;;;3.00;2.70;;;33.50;88.90;;;;;;4184709;28;20134;-70
2022/05/01 08:38:01;;;;;;;4.50;2.90;;;33.50;88.70;;;;;;4181122;28;20048;-70
2022/05/01 08:40:09;;;;;;;5.00;3.53;;;33.50;88.40;;;;;;4186611;28;20045;-67
2022/05/01 08:42:16;;;;;;;8.23;3.85;;;33.60;89.00;;;;;;4183573;28;20580;-69
2022/05/01 08:44:34;;;;;;;5.93;4.13;;;33.60;88.20;;;;;;4182481;28;20147;-70
2022/05/01 08:46:57;;;;;;;4.57;3.65;;;33.40;88.80;;;;;;4180682;28;20446;-69
2022/05/01 08:49:07;;;;;;;4.13;3.40;;;33.60;89.10;;;;;;4179233;28;20500;-68
2022/05/01 08:51:14;;;;;;;4.15;3.67;;;33.40;88.40;;;;;;4177665;28;20045;-68
2022/05/01 08:53:19;;;;;;;4.85;4.05;;;33.40;88.80;;;;;;4177247;28;20052;-69
2022/05/01 08:55:26;;;;;;;4.07;3.67;;;33.30;88.20;;;;;;4178775;28;20055;-68
2022/05/01 08:57:33;;;;;;;4.10;3.47;;;33.30;88.60;;;;;;4180505;28;20072;-68
2022/05/01 08:59:37;;;;;;;5.22;3.42;;;33.40;88.70;;;;;;4179329;28;20041;-68
2022/05/01 09:01:45;;;;;;;4.28;3.20;;;33.50;88.70;;;;;;4178828;28;20103;-69
2022/05/01 09:03:55;;;;;;;4.28;3.65;;;33.60;88.50;;;;;;4180629;28;20147;-70
2022/05/01 09:06:07;;;;;;;4.40;3.30;;;33.60;89.00;;;;;;4179881;28;20534;-70
2022/05/01 09:08:16;;;;;;;3.50;3.20;;;33.60;88.10;;;;;;4125143;28;21500;-69
2022/05/01 09:10:26;;;;;;;5.57;3.63;;;33.30;88.80;;;;;;4181901;28;20464;-70
2022/05/01 09:14:51;;;;;;;4.95;3.33;;;33.60;89.00;;;;;;4181812;28;20040;-69
2022/05/01 09:17:13;;;;;;;3.88;3.15;;;33.40;87.50;;;;;;4154546;28;20447;-72
2022/05/01 09:19:34;;;;;;;;;;;33.40;87.20;;;;;;4177542;28;20076;-70
2022/05/01 09:21:53;;;;;;;4.10;3.65;;;33.50;87.70;;;;;;4176601;28;19931;-70
2022/05/01 09:24:05;;;;;;;3.75;3.28;;;33.40;88.70;;;;;;4163320;28;20053;-70
2022/05/01 09:26:11;;;;;;;4.40;3.80;;;33.40;88.90;;;;;;4181112;28;20110;-70
2022/05/01 09:28:24;;;;;;;4.43;3.70;;;33.50;89.30;;;;;;4129572;28;20201;-70
2022/05/01 09:30:38;;;;;;;3.75;3.30;;;33.40;88.70;;;;;;4177870;28;20041;-70
2022/05/01 09:32:45;;;;;;;4.90;3.70;;;33.40;88.90;;;;;;4181277;28;20056;-69
2022/05/01 09:34:51;;;;;;;7.10;3.40;;;33.50;89.40;;;;;;4177914;28;20147;-69
2022/05/01 09:36:59;;;;;;;5.18;4.45;;;33.50;89.10;;;;;;4181542;28;20049;-70
2022/05/01 09:39:04;;;;;;;4.57;3.80;;;33.40;89.10;;;;;;4176741;28;20555;-70
2022/05/01 09:41:14;;;;;;;3.60;3.30;;;33.40;88.90;;;;;;4173396;28;20817;-71
2022/05/01 09:43:34;;;;;;;6.15;3.90;;;33.20;88.90;;;;;;4175857;28;20373;-69
2022/05/01 09:45:39;;;;;;;4.80;4.40;;;33.30;88.70;;;;;;4183122;28;20045;-69
2022/05/01 09:47:46;;;;;;;4.90;3.97;;;33.30;89.10;;;;;;4180621;28;20155;-69
2022/05/01 09:49:52;;;;;;;3.97;3.60;;;33.20;89.60;;;;;;4177236;28;20070;-70
2022/05/01 09:51:57;;;;;;;4.00;3.50;;;33.20;89.10;;;;;;4177019;28;20041;-70
2022/05/01 09:54:25;;;;;;;4.40;4.00;;;33.10;89.10;;;;;;4134642;28;20062;-71
2022/05/01 09:56:45;;;;;;;4.70;3.90;;;33.10;89.30;;;;;;4117542;28;20089;-69
2022/05/01 09:58:59;;;;;;;6.38;5.03;;;33.20;89.80;;;;;;4132782;28;20078;-69
2022/05/01 10:01:14;;;;;;;6.95;5.07;;;33.20;89.50;;;;;;4119660;28;20050;-70
2022/05/01 10:03:30;;;;;;;4.70;3.72;;;33.20;89.80;;;;;;4135086;28;20054;-69
2022/05/01 10:05:35;;;;;;;4.63;4.10;;;33.10;90.00;;;;;;4118992;28;20050;-69
2022/05/01 10:07:41;;;;;;;5.90;4.35;;;33.20;89.80;;;;;;4103974;28;20110;-70
2022/05/01 10:09:47;;;;;;;6.45;5.18;;;33.20;89.60;;;;;;4134631;28;20042;-71
2022/05/01 10:11:54;;;;;;;5.85;5.07;;;33.10;90.10;;;;;;4130115;28;20413;-70
2022/05/01 10:14:03;;;;;;;5.55;4.97;;;33.00;89.80;;;;;;4132764;28;20049;-70
2022/05/01 10:16:13;;;;;;;5.65;5.00;;;33.00;90.00;;;;;;4114097;28;20740;-70
2022/05/01 10:18:27;;;;;;;6.45;5.82;;;33.00;90.10;;;;;;4103900;28;20097;-70
2022/05/01 10:20:36;;;;;;;9.25;6.75;;;33.00;90.00;;;;;;4134452;28;20053;-71
2022/05/01 10:22:43;;;;;;;6.35;5.75;;;33.10;90.00;;;;;;4118832;28;20046;-69
2022/05/01 10:24:51;;;;;;;8.32;5.50;;;33.10;90.00;;;;;;4136468;28;20652;-70
2022/05/01 10:27:19;;;;;;;7.35;5.88;;;33.20;90.00;;;;;;4181673;28;20052;-70
2022/05/01 10:32:32;;;;;;;7.80;5.95;;;33.20;89.90;;;;;;4142379;28;20041;-70
2022/05/01 10:35:29;;;;;;;8.65;5.72;;;33.10;90.20;;;;;;4183424;28;20517;-70
2022/05/01 10:38:10;;;;;;;6.13;5.25;;;32.90;90.50;;;;;;4162573;28;20041;-70
2022/05/01 10:40:15;;;;;;;4.93;4.43;;;32.80;90.90;;;;;;4175887;28;20574;-69
2022/05/01 10:42:38;;;;;;;7.68;4.85;;;32.60;91.80;;;;;;4165691;28;20099;-71
2022/05/01 10:44:48;;;;;;;15.65;6.05;;;32.70;92.10;;;;;;4180559;28;20037;-70
2022/05/01 10:46:54;;;;;;;12.95;7.30;;;32.70;92.10;;;;;;4181838;28;20620;-69
2022/05/01 10:49:05;;;;;;;10.93;5.70;;;32.60;91.70;;;;;;4181716;28;20547;-70
2022/05/01 10:51:41;;;;;;;10.93;6.50;;;32.50;91.60;;;;;;4166394;28;20148;-70
2022/05/01 10:54:11;;;;;;;10.43;6.03;;;32.50;91.80;;;;;;4182279;28;20051;-70
2022/05/01 10:56:26;;;;;;;12.00;6.65;;;32.50;92.00;;;;;;4160614;28;20543;-70
2022/05/01 10:58:34;;;;;;;13.00;6.40;;;32.40;92.60;;;;;;4167083;28;20551;-70
2022/05/01 11:00:46;;;;;;;7.85;5.10;;;32.40;92.60;;;;;;4178013;28;20075;-70
2022/05/01 11:02:51;;;;;;;7.20;4.68;;;32.20;92.50;;;;;;4179847;28;20078;-69
2022/05/01 11:04:58;;;;;;;10.13;4.57;;;32.20;92.50;;;;;;4180342;28;20075;-71
2022/05/01 11:07:05;;;;;;;9.07;5.10;;;32.20;92.50;;;;;;4178478;28;20049;-71
2022/05/01 11:09:15;;;;;;;10.57;5.25;;;32.10;92.30;;;;;;4178573;28;20036;-72
2022/05/01 11:11:21;;;;;;;7.75;2.75;;;32.10;92.10;;;;;;4162462;28;20041;-72
2022/05/01 11:13:35;;;;;;;9.80;1.75;;;31.70;91.50;;;;;;4158803;28;20069;-69
2022/05/01 11:15:50;;;;;;;31.40;8.93;;;31.20;92.10;;;;;;4187872;28;20037;-70
2022/05/01 11:17:55;;;;;;;21.88;4.72;;;31.00;93.10;;;;;;4165209;28;20080;-69
2022/05/01 11:20:26;;;;;;;27.67;5.40;;;31.00;93.10;;;;;;4183824;28;20029;-70
2022/05/01 11:22:32;;;;;;;11.88;1.17;;;30.80;93.10;;;;;;4168718;28;20045;-69
2022/05/01 11:24:46;;;;;;;6.00;1.33;;;30.60;93.10;;;;;;4172289;28;20077;-68
2022/05/01 11:27:13;;;;;;;5.75;1.10;;;30.40;93.60;;;;;;4187201;28;20075;-69
2022/05/01 11:29:20;;;;;;;5.63;1.25;;;30.40;94.00;;;;;;4175632;28;20049;-70